sensor_id;sensor_type;location;lat;lon;timestamp;P1;durP1;ratioP1;P2;durP2;ratioP2
52542;SDS011;38449;52.696;6.186;2023-09-08T00:00:15;11.43;;;8.52;;
52542;SDS011;38449;52.696;6.186;2023-09-08T00:02:47;11.13;;;8.65;;
52542;SDS011;38449;52.696;6.186;2023-09-08T00:05:41;10.00;;;9.00;;
52542;SDS011;38449;52.696;6.186;2023-09-08T00:08:14;11.00;;;8.57;;
52542;SDS011;38449;52.696;6.186;2023-09-08T00:11:09;9.18;;;8.15;;
52542;SDS011;38449;52.696;6.186;2023-09-08T00:13:41;9.60;;;8.63;;
52542;SDS011;38449;52.696;6.186;2023-09-08T00:16:36;10.82;;;8.10;;
52542;SDS011;38449;52.696;6.186;2023-09-08T00:19:10;10.45;;;8.77;;
52542;SDS011;38449;52.696;6.186;2023-09-08T00:22:03;11.18;;;8.95;;
52542;SDS011;38449;52.696;6.186;2023-09-08T00:24:37;10.05;;;8.38;;
52542;SDS011;38449;52.696;6.186;2023-09-08T00:27:31;11.70;;;9.13;;
52542;SDS011;38449;52.696;6.186;2023-09-08T00:30:05;9.98;;;8.98;;
52542;SDS011;38449;52.696;6.186;2023-09-08T00:32:59;10.93;;;9.38;;
52542;SDS011;38449;52.696;6.186;2023-09-08T00:35:31;12.52;;;9.57;;
52542;SDS011;38449;52.696;6.186;2023-09-08T00:38:25;10.23;;;9.15;;
52542;SDS011;38449;52.696;6.186;2023-09-08T00:40:57;11.48;;;9.07;;
52542;SDS011;38449;52.696;6.186;2023-09-08T00:43:51;11.00;;;9.90;;
52542;SDS011;38449;52.696;6.186;2023-09-08T00:46:23;12.93;;;9.35;;
52542;SDS011;38449;52.696;6.186;2023-09-08T00:49:17;12.70;;;9.52;;
52542;SDS011;38449;52.696;6.186;2023-09-08T00:51:49;11.55;;;9.40;;
52542;SDS011;38449;52.696;6.186;2023-09-08T00:54:43;11.32;;;9.38;;
52542;SDS011;38449;52.696;6.186;2023-09-08T00:57:15;10.18;;;9.13;;
52542;SDS011;38449;52.696;6.186;2023-09-08T01:00:09;12.25;;;9.77;;
52542;SDS011;38449;52.696;6.186;2023-09-08T01:03:02;10.68;;;9.57;;
52542;SDS011;38449;52.696;6.186;2023-09-08T01:05:34;10.95;;;9.65;;
52542;SDS011;38449;52.696;6.186;2023-09-08T01:08:28;10.45;;;9.45;;
52542;SDS011;38449;52.696;6.186;2023-09-08T01:11:00;11.63;;;9.60;;
52542;SDS011;38449;52.696;6.186;2023-09-08T01:13:54;12.50;;;9.75;;
52542;SDS011;38449;52.696;6.186;2023-09-08T01:16:26;10.75;;;9.65;;
52542;SDS011;38449;52.696;6.186;2023-09-08T01:19:20;12.52;;;9.85;;
52542;SDS011;38449;52.696;6.186;2023-09-08T01:27:43;11.07;;;9.95;;
52542;SDS011;38449;52.696;6.186;2023-09-08T01:30:45;12.93;;;9.68;;
52542;SDS011;38449;52.696;6.186;2023-09-08T01:33:17;12.07;;;10.65;;
52542;SDS011;38449;52.696;6.186;2023-09-08T01:36:11;11.93;;;10.27;;
52542;SDS011;38449;52.696;6.186;2023-09-08T01:38:43;12.38;;;10.38;;
52542;SDS011;38449;52.696;6.186;2023-09-08T01:41:37;11.13;;;10.00;;
52542;SDS011;38449;52.696;6.186;2023-09-08T01:44:09;11.50;;;10.23;;
52542;SDS011;38449;52.696;6.186;2023-09-08T01:47:03;11.27;;;10.13;;
52542;SDS011;38449;52.696;6.186;2023-09-08T01:49:35;12.10;;;10.88;;
52542;SDS011;38449;52.696;6.186;2023-09-08T01:52:29;14.50;;;9.85;;
52542;SDS011;38449;52.696;6.186;2023-09-08T01:55:01;11.10;;;10.00;;
52542;SDS011;38449;52.696;6.186;2023-09-08T01:57:57;11.30;;;10.15;;
52542;SDS011;38449;52.696;6.186;2023-09-08T02:00:29;11.70;;;10.35;;
52542;SDS011;38449;52.696;6.186;2023-09-08T02:03:23;11.93;;;10.73;;
52542;SDS011;38449;52.696;6.186;2023-09-08T02:05:55;11.70;;;10.50;;
52542;SDS011;38449;52.696;6.186;2023-09-08T02:08:49;11.68;;;10.05;;
52542;SDS011;38449;52.696;6.186;2023-09-08T02:11:21;12.15;;;10.48;;
52542;SDS011;38449;52.696;6.186;2023-09-08T02:14:15;11.27;;;10.18;;
52542;SDS011;38449;52.696;6.186;2023-09-08T02:16:47;11.88;;;10.68;;
52542;SDS011;38449;52.696;6.186;2023-09-08T02:19:41;12.93;;;10.95;;
52542;SDS011;38449;52.696;6.186;2023-09-08T02:22:13;11.50;;;10.20;;
52542;SDS011;38449;52.696;6.186;2023-09-08T02:25:07;12.38;;;10.85;;
52542;SDS011;38449;52.696;6.186;2023-09-08T02:27:39;11.55;;;10.35;;
52542;SDS011;38449;52.696;6.186;2023-09-08T02:30:33;11.25;;;10.15;;
52542;SDS011;38449;52.696;6.186;2023-09-08T02:33:05;12.32;;;11.02;;
52542;SDS011;38449;52.696;6.186;2023-09-08T02:36:03;12.95;;;10.32;;
52542;SDS011;38449;52.696;6.186;2023-09-08T02:38:37;12.90;;;10.65;;
52542;SDS011;38449;52.696;6.186;2023-09-08T02:41:31;13.02;;;10.70;;
52542;SDS011;38449;52.696;6.186;2023-09-08T02:44:04;12.93;;;10.23;;
52542;SDS011;38449;52.696;6.186;2023-09-08T02:46:57;11.05;;;9.93;;
52542;SDS011;38449;52.696;6.186;2023-09-08T02:49:29;12.85;;;10.57;;
52542;SDS011;38449;52.696;6.186;2023-09-08T02:52:23;12.30;;;10.63;;
52542;SDS011;38449;52.696;6.186;2023-09-08T02:55:16;13.77;;;10.88;;
52542;SDS011;38449;52.696;6.186;2023-09-08T02:57:49;12.40;;;11.07;;
52542;SDS011;38449;52.696;6.186;2023-09-08T03:00:42;12.43;;;10.98;;
52542;SDS011;38449;52.696;6.186;2023-09-08T03:03:14;13.40;;;10.60;;
52542;SDS011;38449;52.696;6.186;2023-09-08T03:06:08;14.35;;;10.88;;
52542;SDS011;38449;52.696;6.186;2023-09-08T03:08:42;11.35;;;10.15;;
52542;SDS011;38449;52.696;6.186;2023-09-08T03:11:35;13.18;;;10.75;;
52542;SDS011;38449;52.696;6.186;2023-09-08T03:14:08;13.05;;;11.15;;
52542;SDS011;38449;52.696;6.186;2023-09-08T03:17:02;14.63;;;10.93;;
52542;SDS011;38449;52.696;6.186;2023-09-08T03:19:35;15.05;;;11.18;;
52542;SDS011;38449;52.696;6.186;2023-09-08T03:22:28;12.85;;;11.55;;
52542;SDS011;38449;52.696;6.186;2023-09-08T03:25:01;15.80;;;11.65;;
52542;SDS011;38449;52.696;6.186;2023-09-08T03:27:54;13.40;;;11.50;;
52542;SDS011;38449;52.696;6.186;2023-09-08T03:30:27;15.27;;;11.77;;
52542;SDS011;38449;52.696;6.186;2023-09-08T03:33:20;13.93;;;11.32;;
52542;SDS011;38449;52.696;6.186;2023-09-08T03:35:52;13.38;;;11.95;;
52542;SDS011;38449;52.696;6.186;2023-09-08T03:38:46;13.55;;;11.20;;
52542;SDS011;38449;52.696;6.186;2023-09-08T03:41:19;12.57;;;11.27;;
52542;SDS011;38449;52.696;6.186;2023-09-08T03:44:12;14.55;;;11.80;;
52542;SDS011;38449;52.696;6.186;2023-09-08T03:46:45;14.15;;;11.80;;
52542;SDS011;38449;52.696;6.186;2023-09-08T03:49:38;14.30;;;11.68;;
52542;SDS011;38449;52.696;6.186;2023-09-08T03:52:11;13.93;;;12.43;;
52542;SDS011;38449;52.696;6.186;2023-09-08T03:55:04;14.32;;;11.85;;
52542;SDS011;38449;52.696;6.186;2023-09-08T03:57:38;13.40;;;12.05;;
52542;SDS011;38449;52.696;6.186;2023-09-08T04:00:31;13.90;;;12.32;;
52542;SDS011;38449;52.696;6.186;2023-09-08T04:03:04;14.77;;;12.57;;
52542;SDS011;38449;52.696;6.186;2023-09-08T04:05:57;14.18;;;12.38;;
52542;SDS011;38449;52.696;6.186;2023-09-08T04:08:30;13.75;;;12.15;;
52542;SDS011;38449;52.696;6.186;2023-09-08T04:11:23;14.30;;;12.27;;
52542;SDS011;38449;52.696;6.186;2023-09-08T04:13:56;13.75;;;12.35;;
52542;SDS011;38449;52.696;6.186;2023-09-08T04:16:49;17.75;;;12.65;;
52542;SDS011;38449;52.696;6.186;2023-09-08T04:19:22;13.13;;;11.82;;
52542;SDS011;38449;52.696;6.186;2023-09-08T04:22:15;15.65;;;12.68;;
52542;SDS011;38449;52.696;6.186;2023-09-08T04:24:48;15.05;;;13.05;;
52542;SDS011;38449;52.696;6.186;2023-09-08T04:27:41;14.50;;;13.00;;
52542;SDS011;38449;52.696;6.186;2023-09-08T04:30:14;15.60;;;13.18;;
52542;SDS011;38449;52.696;6.186;2023-09-08T04:33:07;14.50;;;13.00;;
52542;SDS011;38449;52.696;6.186;2023-09-08T04:35:40;14.30;;;12.88;;
52542;SDS011;38449;52.696;6.186;2023-09-08T04:38:33;15.23;;;12.65;;
52542;SDS011;38449;52.696;6.186;2023-09-08T04:41:06;17.45;;;12.90;;
52542;SDS011;38449;52.696;6.186;2023-09-08T04:43:59;14.55;;;12.73;;
52542;SDS011;38449;52.696;6.186;2023-09-08T04:46:32;14.38;;;12.88;;
52542;SDS011;38449;52.696;6.186;2023-09-08T04:49:25;14.65;;;13.13;;
52542;SDS011;38449;52.696;6.186;2023-09-08T04:51:58;13.95;;;12.55;;
52542;SDS011;38449;52.696;6.186;2023-09-08T04:54:51;18.92;;;13.55;;
52542;SDS011;38449;52.696;6.186;2023-09-08T04:57:24;14.27;;;12.77;;
52542;SDS011;38449;52.696;6.186;2023-09-08T05:00:17;17.83;;;12.90;;
52542;SDS011;38449;52.696;6.186;2023-09-08T05:02:50;15.02;;;12.68;;
52542;SDS011;38449;52.696;6.186;2023-09-08T05:05:44;14.52;;;11.90;;
52542;SDS011;38449;52.696;6.186;2023-09-08T05:08:17;15.02;;;13.43;;
52542;SDS011;38449;52.696;6.186;2023-09-08T05:11:13;14.35;;;12.88;;
52542;SDS011;38449;52.696;6.186;2023-09-08T05:13:46;13.98;;;12.50;;
52542;SDS011;38449;52.696;6.186;2023-09-08T05:16:39;15.40;;;13.18;;
52542;SDS011;38449;52.696;6.186;2023-09-08T05:19:18;14.57;;;12.07;;
52542;SDS011;38449;52.696;6.186;2023-09-08T05:22:11;17.35;;;13.25;;
52542;SDS011;38449;52.696;6.186;2023-09-08T05:24:44;16.77;;;13.43;;
52542;SDS011;38449;52.696;6.186;2023-09-08T05:27:37;14.50;;;12.07;;
52542;SDS011;38449;52.696;6.186;2023-09-08T05:30:10;16.23;;;12.45;;
52542;SDS011;38449;52.696;6.186;2023-09-08T05:33:03;14.07;;;12.65;;
52542;SDS011;38449;52.696;6.186;2023-09-08T05:35:36;14.55;;;13.15;;
52542;SDS011;38449;52.696;6.186;2023-09-08T05:38:29;13.73;;;12.32;;
52542;SDS011;38449;52.696;6.186;2023-09-08T05:41:02;16.60;;;13.38;;
52542;SDS011;38449;52.696;6.186;2023-09-08T05:43:55;16.50;;;12.55;;
52542;SDS011;38449;52.696;6.186;2023-09-08T05:46:28;13.15;;;11.85;;
52542;SDS011;38449;52.696;6.186;2023-09-08T05:49:21;16.17;;;12.32;;
52542;SDS011;38449;52.696;6.186;2023-09-08T05:52:00;14.10;;;12.27;;
52542;SDS011;38449;52.696;6.186;2023-09-08T05:54:53;13.73;;;11.57;;
52542;SDS011;38449;52.696;6.186;2023-09-08T05:57:26;13.93;;;11.60;;
52542;SDS011;38449;52.696;6.186;2023-09-08T06:00:20;14.18;;;12.75;;
52542;SDS011;38449;52.696;6.186;2023-09-08T06:02:54;12.80;;;11.32;;
52542;SDS011;38449;52.696;6.186;2023-09-08T06:05:47;13.25;;;11.95;;
52542;SDS011;38449;52.696;6.186;2023-09-08T06:08:20;12.70;;;11.38;;
52542;SDS011;38449;52.696;6.186;2023-09-08T06:11:13;12.90;;;11.63;;
52542;SDS011;38449;52.696;6.186;2023-09-08T06:13:47;13.25;;;11.25;;
52542;SDS011;38449;52.696;6.186;2023-09-08T06:16:44;13.25;;;10.55;;
52542;SDS011;38449;52.696;6.186;2023-09-08T06:19:17;11.75;;;10.52;;
52542;SDS011;38449;52.696;6.186;2023-09-08T06:22:10;11.95;;;10.75;;
52542;SDS011;38449;52.696;6.186;2023-09-08T06:24:43;12.15;;;10.90;;
52542;SDS011;38449;52.696;6.186;2023-09-08T06:27:36;12.95;;;11.27;;
52542;SDS011;38449;52.696;6.186;2023-09-08T06:30:09;12.73;;;11.20;;
52542;SDS011;38449;52.696;6.186;2023-09-08T06:33:03;14.30;;;11.52;;
52542;SDS011;38449;52.696;6.186;2023-09-08T06:35:36;12.48;;;11.18;;
52542;SDS011;38449;52.696;6.186;2023-09-08T06:38:29;12.02;;;10.75;;
52542;SDS011;38449;52.696;6.186;2023-09-08T06:41:09;11.48;;;10.38;;
52542;SDS011;38449;52.696;6.186;2023-09-08T06:44:03;11.82;;;10.35;;
52542;SDS011;38449;52.696;6.186;2023-09-08T06:46:37;12.13;;;10.30;;
52542;SDS011;38449;52.696;6.186;2023-09-08T06:49:30;11.80;;;10.60;;
52542;SDS011;38449;52.696;6.186;2023-09-08T06:52:03;11.73;;;10.48;;
52542;SDS011;38449;52.696;6.186;2023-09-08T06:54:56;12.30;;;10.98;;
52542;SDS011;38449;52.696;6.186;2023-09-08T06:57:29;12.38;;;11.07;;
52542;SDS011;38449;52.696;6.186;2023-09-08T07:00:22;12.32;;;10.95;;
52542;SDS011;38449;52.696;6.186;2023-09-08T07:02:55;11.80;;;10.60;;
52542;SDS011;38449;52.696;6.186;2023-09-08T07:05:49;12.50;;;10.63;;
52542;SDS011;38449;52.696;6.186;2023-09-08T07:08:22;11.45;;;10.23;;
52542;SDS011;38449;52.696;6.186;2023-09-08T07:11:15;14.75;;;10.48;;
52542;SDS011;38449;52.696;6.186;2023-09-08T07:13:49;12.27;;;10.30;;
52542;SDS011;38449;52.696;6.186;2023-09-08T07:16:42;12.52;;;11.23;;
52542;SDS011;38449;52.696;6.186;2023-09-08T07:19:15;11.80;;;10.48;;
52542;SDS011;38449;52.696;6.186;2023-09-08T07:22:08;11.02;;;9.85;;
52542;SDS011;38449;52.696;6.186;2023-09-08T07:24:41;12.07;;;10.80;;
52542;SDS011;38449;52.696;6.186;2023-09-08T07:27:42;11.50;;;10.05;;
52542;SDS011;38449;52.696;6.186;2023-09-08T07:30:21;11.65;;;10.15;;
52542;SDS011;38449;52.696;6.186;2023-09-08T07:32:54;11.45;;;10.32;;
52542;SDS011;38449;52.696;6.186;2023-09-08T07:35:47;11.35;;;9.52;;
52542;SDS011;38449;52.696;6.186;2023-09-08T07:38:20;12.73;;;9.65;;
52542;SDS011;38449;52.696;6.186;2023-09-08T07:41:16;10.05;;;9.02;;
52542;SDS011;38449;52.696;6.186;2023-09-08T07:43:49;13.55;;;9.80;;
52542;SDS011;38449;52.696;6.186;2023-09-08T07:46:42;12.27;;;9.75;;
52542;SDS011;38449;52.696;6.186;2023-09-08T07:49:16;10.75;;;8.95;;
52542;SDS011;38449;52.696;6.186;2023-09-08T07:52:10;12.23;;;9.63;;
52542;SDS011;38449;52.696;6.186;2023-09-08T07:55:03;13.75;;;10.57;;
52542;SDS011;38449;52.696;6.186;2023-09-08T07:57:36;10.77;;;9.68;;
52542;SDS011;38449;52.696;6.186;2023-09-08T08:00:30;10.25;;;9.13;;
52542;SDS011;38449;52.696;6.186;2023-09-08T08:03:03;10.30;;;8.85;;
52542;SDS011;38449;52.696;6.186;2023-09-08T08:05:56;12.77;;;9.13;;
52542;SDS011;38449;52.696;6.186;2023-09-08T08:08:30;11.43;;;9.43;;
52542;SDS011;38449;52.696;6.186;2023-09-08T08:11:23;10.52;;;9.23;;
52542;SDS011;38449;52.696;6.186;2023-09-08T08:13:57;9.93;;;8.90;;
52542;SDS011;38449;52.696;6.186;2023-09-08T08:16:50;11.30;;;8.48;;
52542;SDS011;38449;52.696;6.186;2023-09-08T08:19:23;10.70;;;9.40;;
52542;SDS011;38449;52.696;6.186;2023-09-08T08:22:16;10.27;;;8.43;;
52542;SDS011;38449;52.696;6.186;2023-09-08T08:24:49;9.85;;;8.60;;
52542;SDS011;38449;52.696;6.186;2023-09-08T08:27:42;10.10;;;7.60;;
52542;SDS011;38449;52.696;6.186;2023-09-08T08:30:15;10.32;;;8.38;;
52542;SDS011;38449;52.696;6.186;2023-09-08T08:33:08;10.40;;;8.02;;
52542;SDS011;38449;52.696;6.186;2023-09-08T08:35:41;15.85;;;8.88;;
52542;SDS011;38449;52.696;6.186;2023-09-08T08:38:40;10.35;;;8.05;;
52542;SDS011;38449;52.696;6.186;2023-09-08T08:41:13;9.85;;;8.15;;
52542;SDS011;38449;52.696;6.186;2023-09-08T08:44:06;10.50;;;7.88;;
52542;SDS011;38449;52.696;6.186;2023-09-08T08:46:40;11.70;;;7.78;;
52542;SDS011;38449;52.696;6.186;2023-09-08T08:49:35;9.15;;;7.60;;
52542;SDS011;38449;52.696;6.186;2023-09-08T08:52:15;10.38;;;7.70;;
52542;SDS011;38449;52.696;6.186;2023-09-08T08:55:09;10.07;;;7.80;;
52542;SDS011;38449;52.696;6.186;2023-09-08T08:57:43;10.40;;;8.55;;
52542;SDS011;38449;52.696;6.186;2023-09-08T09:00:36;9.07;;;7.85;;
52542;SDS011;38449;52.696;6.186;2023-09-08T09:03:10;10.73;;;8.27;;
52542;SDS011;38449;52.696;6.186;2023-09-08T09:06:03;11.15;;;8.63;;
52542;SDS011;38449;52.696;6.186;2023-09-08T09:08:37;9.55;;;8.50;;
52542;SDS011;38449;52.696;6.186;2023-09-08T09:11:30;9.65;;;8.07;;
52542;SDS011;38449;52.696;6.186;2023-09-08T09:14:03;9.68;;;8.15;;
52542;SDS011;38449;52.696;6.186;2023-09-08T09:16:56;9.95;;;7.45;;
52542;SDS011;38449;52.696;6.186;2023-09-08T09:19:29;11.15;;;8.55;;
52542;SDS011;38449;52.696;6.186;2023-09-08T09:22:22;9.23;;;8.20;;
52542;SDS011;38449;52.696;6.186;2023-09-08T09:24:55;10.55;;;8.57;;
52542;SDS011;38449;52.696;6.186;2023-09-08T09:27:53;12.02;;;8.50;;
52542;SDS011;38449;52.696;6.186;2023-09-08T09:30:27;9.95;;;8.30;;
52542;SDS011;38449;52.696;6.186;2023-09-08T09:33:37;10.50;;;8.18;;
52542;SDS011;38449;52.696;6.186;2023-09-08T09:36:12;12.38;;;9.43;;
52542;SDS011;38449;52.696;6.186;2023-09-08T09:39:12;10.05;;;8.32;;
52542;SDS011;38449;52.696;6.186;2023-09-08T09:41:46;9.73;;;8.73;;
52542;SDS011;38449;52.696;6.186;2023-09-08T09:44:39;9.48;;;8.32;;
52542;SDS011;38449;52.696;6.186;2023-09-08T09:47:13;11.77;;;8.90;;
52542;SDS011;38449;52.696;6.186;2023-09-08T09:50:07;10.65;;;9.45;;
52542;SDS011;38449;52.696;6.186;2023-09-08T09:52:40;9.63;;;8.63;;
52542;SDS011;38449;52.696;6.186;2023-09-08T09:55:37;10.70;;;8.63;;
52542;SDS011;38449;52.696;6.186;2023-09-08T09:58:11;9.60;;;8.50;;
52542;SDS011;38449;52.696;6.186;2023-09-08T10:01:04;9.00;;;7.57;;
52542;SDS011;38449;52.696;6.186;2023-09-08T10:03:38;9.35;;;8.32;;
52542;SDS011;38449;52.696;6.186;2023-09-08T10:06:32;9.98;;;8.15;;
52542;SDS011;38449;52.696;6.186;2023-09-08T10:09:06;9.90;;;8.25;;
52542;SDS011;38449;52.696;6.186;2023-09-08T10:12:00;9.20;;;7.18;;
52542;SDS011;38449;52.696;6.186;2023-09-08T10:14:36;8.90;;;7.38;;
52542;SDS011;38449;52.696;6.186;2023-09-08T10:17:33;8.05;;;7.18;;
52542;SDS011;38449;52.696;6.186;2023-09-08T10:20:07;8.52;;;7.22;;
52542;SDS011;38449;52.696;6.186;2023-09-08T10:25:45;10.07;;;7.50;;
52542;SDS011;38449;52.696;6.186;2023-09-08T10:28:42;10.88;;;7.60;;
52542;SDS011;38449;52.696;6.186;2023-09-08T10:31:16;9.10;;;7.03;;
52542;SDS011;38449;52.696;6.186;2023-09-08T10:34:09;9.55;;;7.03;;
52542;SDS011;38449;52.696;6.186;2023-09-08T10:36:43;9.02;;;7.03;;
52542;SDS011;38449;52.696;6.186;2023-09-08T10:39:36;9.00;;;6.97;;
52542;SDS011;38449;52.696;6.186;2023-09-08T10:45:16;9.68;;;6.35;;
52542;SDS011;38449;52.696;6.186;2023-09-08T10:50:43;7.45;;;6.60;;
52542;SDS011;38449;52.696;6.186;2023-09-08T10:53:17;8.00;;;6.63;;
52542;SDS011;38449;52.696;6.186;2023-09-08T10:56:10;7.40;;;6.68;;
52542;SDS011;38449;52.696;6.186;2023-09-08T10:58:43;9.68;;;7.85;;
52542;SDS011;38449;52.696;6.186;2023-09-08T11:01:42;8.85;;;7.57;;
52542;SDS011;38449;52.696;6.186;2023-09-08T11:04:15;8.32;;;6.75;;
52542;SDS011;38449;52.696;6.186;2023-09-08T11:07:09;9.55;;;7.40;;
52542;SDS011;38449;52.696;6.186;2023-09-08T11:09:42;10.55;;;7.10;;
52542;SDS011;38449;52.696;6.186;2023-09-08T11:12:36;10.25;;;6.95;;
52542;SDS011;38449;52.696;6.186;2023-09-08T11:15:08;9.05;;;7.10;;
52542;SDS011;38449;52.696;6.186;2023-09-08T11:18:05;9.32;;;6.63;;
52542;SDS011;38449;52.696;6.186;2023-09-08T11:20:38;9.48;;;7.35;;
52542;SDS011;38449;52.696;6.186;2023-09-08T11:23:31;7.72;;;6.78;;
52542;SDS011;38449;52.696;6.186;2023-09-08T11:26:04;9.18;;;7.43;;
52542;SDS011;38449;52.696;6.186;2023-09-08T11:28:57;10.25;;;6.85;;
52542;SDS011;38449;52.696;6.186;2023-09-08T11:31:31;8.65;;;6.90;;
52542;SDS011;38449;52.696;6.186;2023-09-08T11:34:23;9.07;;;7.32;;
52542;SDS011;38449;52.696;6.186;2023-09-08T11:36:56;9.45;;;6.90;;
52542;SDS011;38449;52.696;6.186;2023-09-08T11:39:49;8.85;;;7.00;;
52542;SDS011;38449;52.696;6.186;2023-09-08T11:42:22;8.70;;;7.43;;
52542;SDS011;38449;52.696;6.186;2023-09-08T11:45:16;9.98;;;7.50;;
52542;SDS011;38449;52.696;6.186;2023-09-08T11:47:53;10.32;;;7.90;;
52542;SDS011;38449;52.696;6.186;2023-09-08T11:50:47;9.50;;;7.32;;
52542;SDS011;38449;52.696;6.186;2023-09-08T11:53:20;8.90;;;6.50;;
52542;SDS011;38449;52.696;6.186;2023-09-08T11:56:15;9.13;;;7.00;;
52542;SDS011;38449;52.696;6.186;2023-09-08T11:58:47;9.70;;;7.38;;
52542;SDS011;38449;52.696;6.186;2023-09-08T12:01:41;9.65;;;7.30;;
52542;SDS011;38449;52.696;6.186;2023-09-08T12:04:17;7.40;;;6.45;;
52542;SDS011;38449;52.696;6.186;2023-09-08T12:07:13;7.82;;;6.55;;
52542;SDS011;38449;52.696;6.186;2023-09-08T12:09:50;7.10;;;6.40;;
52542;SDS011;38449;52.696;6.186;2023-09-08T12:12:44;7.60;;;6.80;;
52542;SDS011;38449;52.696;6.186;2023-09-08T12:18:36;9.00;;;6.18;;
52542;SDS011;38449;52.696;6.186;2023-09-08T12:21:10;10.13;;;6.82;;
52542;SDS011;38449;52.696;6.186;2023-09-08T12:24:04;14.25;;;8.88;;
52542;SDS011;38449;52.696;6.186;2023-09-08T12:26:36;6.95;;;6.00;;
52542;SDS011;38449;52.696;6.186;2023-09-08T12:29:30;9.07;;;6.40;;
52542;SDS011;38449;52.696;6.186;2023-09-08T12:32:02;7.15;;;6.25;;
52542;SDS011;38449;52.696;6.186;2023-09-08T12:34:56;6.95;;;5.95;;
52542;SDS011;38449;52.696;6.186;2023-09-08T12:37:29;7.97;;;6.57;;
52542;SDS011;38449;52.696;6.186;2023-09-08T12:40:26;7.50;;;6.10;;
52542;SDS011;38449;52.696;6.186;2023-09-08T12:42:59;7.75;;;6.55;;
52542;SDS011;38449;52.696;6.186;2023-09-08T12:45:53;8.70;;;6.40;;
52542;SDS011;38449;52.696;6.186;2023-09-08T12:48:25;9.70;;;5.90;;
52542;SDS011;38449;52.696;6.186;2023-09-08T12:51:19;7.63;;;6.30;;
52542;SDS011;38449;52.696;6.186;2023-09-08T12:54:05;7.88;;;5.90;;
52542;SDS011;38449;52.696;6.186;2023-09-08T12:56:58;8.27;;;6.18;;
52542;SDS011;38449;52.696;6.186;2023-09-08T12:59:30;8.20;;;5.60;;
52542;SDS011;38449;52.696;6.186;2023-09-08T13:02:24;8.02;;;5.88;;
52542;SDS011;38449;52.696;6.186;2023-09-08T13:04:56;6.75;;;5.82;;
52542;SDS011;38449;52.696;6.186;2023-09-08T13:07:50;5.45;;;4.88;;
52542;SDS011;38449;52.696;6.186;2023-09-08T13:10:22;8.55;;;6.18;;
52542;SDS011;38449;52.696;6.186;2023-09-08T13:13:16;10.43;;;6.53;;
52542;SDS011;38449;52.696;6.186;2023-09-08T13:15:48;6.40;;;5.65;;
52542;SDS011;38449;52.696;6.186;2023-09-08T13:18:42;7.65;;;5.43;;
52542;SDS011;38449;52.696;6.186;2023-09-08T13:21:16;8.32;;;5.47;;
52542;SDS011;38449;52.696;6.186;2023-09-08T13:24:10;6.93;;;5.38;;
52542;SDS011;38449;52.696;6.186;2023-09-08T13:26:44;6.93;;;5.43;;
52542;SDS011;38449;52.696;6.186;2023-09-08T13:29:38;6.03;;;5.35;;
52542;SDS011;38449;52.696;6.186;2023-09-08T13:32:13;7.30;;;5.43;;
52542;SDS011;38449;52.696;6.186;2023-09-08T13:35:09;5.93;;;5.30;;
52542;SDS011;38449;52.696;6.186;2023-09-08T13:37:41;6.45;;;5.03;;
52542;SDS011;38449;52.696;6.186;2023-09-08T13:40:35;7.22;;;5.60;;
52542;SDS011;38449;52.696;6.186;2023-09-08T13:43:07;6.80;;;5.43;;
52542;SDS011;38449;52.696;6.186;2023-09-08T13:46:01;10.23;;;6.28;;
52542;SDS011;38449;52.696;6.186;2023-09-08T13:48:33;6.88;;;5.43;;
52542;SDS011;38449;52.696;6.186;2023-09-08T13:51:27;7.57;;;5.38;;
52542;SDS011;38449;52.696;6.186;2023-09-08T13:54:20;6.30;;;5.20;;
52542;SDS011;38449;52.696;6.186;2023-09-08T13:56:59;7.28;;;5.32;;
52542;SDS011;38449;52.696;6.186;2023-09-08T13:59:54;5.43;;;4.93;;
52542;SDS011;38449;52.696;6.186;2023-09-08T14:02:26;8.20;;;5.45;;
52542;SDS011;38449;52.696;6.186;2023-09-08T14:05:20;7.20;;;5.63;;
52542;SDS011;38449;52.696;6.186;2023-09-08T14:07:52;7.13;;;5.30;;
52542;SDS011;38449;52.696;6.186;2023-09-08T14:10:46;7.47;;;5.03;;
52542;SDS011;38449;52.696;6.186;2023-09-08T14:13:18;5.97;;;5.15;;
52542;SDS011;38449;52.696;6.186;2023-09-08T14:16:12;7.88;;;5.13;;
52542;SDS011;38449;52.696;6.186;2023-09-08T14:18:45;6.75;;;5.18;;
52542;SDS011;38449;52.696;6.186;2023-09-08T14:21:39;5.45;;;4.88;;
52542;SDS011;38449;52.696;6.186;2023-09-08T14:24:12;5.90;;;5.22;;
52542;SDS011;38449;52.696;6.186;2023-09-08T14:27:05;6.22;;;5.55;;
52542;SDS011;38449;52.696;6.186;2023-09-08T14:29:38;6.18;;;5.57;;
52542;SDS011;38449;52.696;6.186;2023-09-08T14:32:31;8.40;;;5.50;;
52542;SDS011;38449;52.696;6.186;2023-09-08T14:35:04;7.47;;;5.55;;
52542;SDS011;38449;52.696;6.186;2023-09-08T14:37:57;8.43;;;6.00;;
52542;SDS011;38449;52.696;6.186;2023-09-08T14:40:30;8.77;;;5.40;;
52542;SDS011;38449;52.696;6.186;2023-09-08T14:43:23;7.00;;;5.10;;
52542;SDS011;38449;52.696;6.186;2023-09-08T14:45:57;6.20;;;4.95;;
52542;SDS011;38449;52.696;6.186;2023-09-08T14:48:50;7.75;;;5.43;;
52542;SDS011;38449;52.696;6.186;2023-09-08T14:51:23;5.72;;;5.18;;
52542;SDS011;38449;52.696;6.186;2023-09-08T14:54:16;7.18;;;5.55;;
52542;SDS011;38449;52.696;6.186;2023-09-08T14:57:09;6.72;;;5.55;;
52542;SDS011;38449;52.696;6.186;2023-09-08T14:59:42;6.88;;;5.22;;
52542;SDS011;38449;52.696;6.186;2023-09-08T15:02:35;6.05;;;5.45;;
52542;SDS011;38449;52.696;6.186;2023-09-08T15:05:08;7.32;;;5.75;;
52542;SDS011;38449;52.696;6.186;2023-09-08T15:08:01;6.07;;;5.30;;
52542;SDS011;38449;52.696;6.186;2023-09-08T15:10:35;7.85;;;5.60;;
52542;SDS011;38449;52.696;6.186;2023-09-08T15:13:28;6.05;;;5.43;;
52542;SDS011;38449;52.696;6.186;2023-09-08T15:16:01;9.00;;;5.68;;
52542;SDS011;38449;52.696;6.186;2023-09-08T15:18:54;6.38;;;5.68;;
52542;SDS011;38449;52.696;6.186;2023-09-08T15:21:27;7.57;;;6.05;;
52542;SDS011;38449;52.696;6.186;2023-09-08T15:24:20;6.82;;;6.13;;
52542;SDS011;38449;52.696;6.186;2023-09-08T15:26:53;6.75;;;5.60;;
52542;SDS011;38449;52.696;6.186;2023-09-08T15:29:46;7.18;;;5.90;;
52542;SDS011;38449;52.696;6.186;2023-09-08T15:32:19;8.63;;;6.13;;
52542;SDS011;38449;52.696;6.186;2023-09-08T15:35:12;7.85;;;6.53;;
52542;SDS011;38449;52.696;6.186;2023-09-08T15:37:45;8.45;;;6.00;;
52542;SDS011;38449;52.696;6.186;2023-09-08T15:40:40;8.90;;;7.07;;
52542;SDS011;38449;52.696;6.186;2023-09-08T15:43:44;7.00;;;6.30;;
52542;SDS011;38449;52.696;6.186;2023-09-08T15:46:49;6.95;;;6.00;;
52542;SDS011;38449;52.696;6.186;2023-09-08T15:49:22;8.18;;;6.57;;
52542;SDS011;38449;52.696;6.186;2023-09-08T15:52:15;7.85;;;6.18;;
52542;SDS011;38449;52.696;6.186;2023-09-08T15:54:48;8.27;;;6.30;;
52542;SDS011;38449;52.696;6.186;2023-09-08T15:57:41;6.28;;;5.68;;
52542;SDS011;38449;52.696;6.186;2023-09-08T16:00:14;7.85;;;6.32;;
52542;SDS011;38449;52.696;6.186;2023-09-08T16:03:07;6.70;;;6.10;;
52542;SDS011;38449;52.696;6.186;2023-09-08T16:05:40;9.98;;;6.22;;
52542;SDS011;38449;52.696;6.186;2023-09-08T16:08:33;8.80;;;6.65;;
52542;SDS011;38449;52.696;6.186;2023-09-08T16:11:06;8.10;;;6.68;;
52542;SDS011;38449;52.696;6.186;2023-09-08T16:13:59;7.70;;;6.25;;
52542;SDS011;38449;52.696;6.186;2023-09-08T16:16:32;7.32;;;6.63;;
52542;SDS011;38449;52.696;6.186;2023-09-08T16:19:26;8.57;;;6.15;;
52542;SDS011;38449;52.696;6.186;2023-09-08T16:22:01;7.43;;;6.18;;
52542;SDS011;38449;52.696;6.186;2023-09-08T16:24:54;7.32;;;5.70;;
52542;SDS011;38449;52.696;6.186;2023-09-08T16:27:27;8.73;;;5.82;;
52542;SDS011;38449;52.696;6.186;2023-09-08T16:30:20;8.85;;;6.60;;